sensor_id;sensor_type;location;lat;lon;timestamp;P1;durP1;ratioP1;P2;durP2;ratioP2
78672;SDS011;67988;60.086;30.354;2023-03-31T00:01:33;12.35;;;6.78;;
78672;SDS011;67988;60.086;30.354;2023-03-31T00:04:02;12.73;;;7.22;;
78672;SDS011;67988;60.086;30.354;2023-03-31T00:08:56;8.70;;;5.57;;
78672;SDS011;67988;60.086;30.354;2023-03-31T00:11:26;8.88;;;6.30;;
78672;SDS011;67988;60.086;30.354;2023-03-31T00:13:54;10.65;;;5.82;;
78672;SDS011;67988;60.086;30.354;2023-03-31T00:16:21;13.98;;;7.18;;
78672;SDS011;67988;60.086;30.354;2023-03-31T00:18:48;11.18;;;6.72;;
78672;SDS011;67988;60.086;30.354;2023-03-31T00:21:18;11.20;;;6.90;;
78672;SDS011;67988;60.086;30.354;2023-03-31T00:23:58;10.05;;;6.35;;
78672;SDS011;67988;60.086;30.354;2023-03-31T00:26:27;13.45;;;6.65;;
78672;SDS011;67988;60.086;30.354;2023-03-31T00:28:54;15.10;;;9.18;;
78672;SDS011;67988;60.086;30.354;2023-03-31T00:31:22;13.98;;;8.35;;
78672;SDS011;67988;60.086;30.354;2023-03-31T00:33:49;16.27;;;9.23;;
78672;SDS011;67988;60.086;30.354;2023-03-31T00:36:18;10.23;;;6.63;;
78672;SDS011;67988;60.086;30.354;2023-03-31T00:38:51;12.88;;;6.38;;
78672;SDS011;67988;60.086;30.354;2023-03-31T00:41:19;12.43;;;7.43;;
78672;SDS011;67988;60.086;30.354;2023-03-31T00:44:00;16.50;;;8.65;;
78672;SDS011;67988;60.086;30.354;2023-03-31T00:46:32;12.77;;;7.80;;
78672;SDS011;67988;60.086;30.354;2023-03-31T00:49:03;14.02;;;8.63;;
78672;SDS011;67988;60.086;30.354;2023-03-31T00:54:00;10.13;;;6.60;;
78672;SDS011;67988;60.086;30.354;2023-03-31T00:56:33;11.68;;;7.05;;
78672;SDS011;67988;60.086;30.354;2023-03-31T00:59:05;13.15;;;8.07;;
78672;SDS011;67988;60.086;30.354;2023-03-31T01:01:35;11.18;;;7.38;;
78672;SDS011;67988;60.086;30.354;2023-03-31T01:04:07;9.50;;;6.35;;
78672;SDS011;67988;60.086;30.354;2023-03-31T01:06:37;14.00;;;7.68;;
78672;SDS011;67988;60.086;30.354;2023-03-31T01:09:12;14.25;;;9.07;;
78672;SDS011;67988;60.086;30.354;2023-03-31T01:14:10;14.07;;;7.80;;
78672;SDS011;67988;60.086;30.354;2023-03-31T01:16:37;15.82;;;7.90;;
78672;SDS011;67988;60.086;30.354;2023-03-31T01:19:05;14.18;;;8.82;;
78672;SDS011;67988;60.086;30.354;2023-03-31T01:21:46;16.10;;;9.15;;
78672;SDS011;67988;60.086;30.354;2023-03-31T01:37:14;15.68;;;8.43;;
78672;SDS011;67988;60.086;30.354;2023-03-31T01:40:06;14.32;;;8.10;;
78672;SDS011;67988;60.086;30.354;2023-03-31T01:42:47;14.63;;;8.05;;
78672;SDS011;67988;60.086;30.354;2023-03-31T01:45:19;17.63;;;10.90;;
78672;SDS011;67988;60.086;30.354;2023-03-31T01:47:54;13.70;;;7.45;;
78672;SDS011;67988;60.086;30.354;2023-03-31T01:50:27;14.07;;;7.60;;
78672;SDS011;67988;60.086;30.354;2023-03-31T01:53:00;14.07;;;8.57;;
78672;SDS011;67988;60.086;30.354;2023-03-31T01:55:34;18.70;;;10.90;;
78672;SDS011;67988;60.086;30.354;2023-03-31T01:58:04;16.92;;;10.60;;
78672;SDS011;67988;60.086;30.354;2023-03-31T02:00:37;14.80;;;8.30;;
78672;SDS011;67988;60.086;30.354;2023-03-31T02:03:10;17.42;;;8.65;;
78672;SDS011;67988;60.086;30.354;2023-03-31T02:08:13;16.20;;;9.45;;
78672;SDS011;67988;60.086;30.354;2023-03-31T02:10:46;17.65;;;9.82;;
78672;SDS011;67988;60.086;30.354;2023-03-31T02:13:14;16.30;;;10.35;;
78672;SDS011;67988;60.086;30.354;2023-03-31T02:15:45;16.52;;;10.30;;
78672;SDS011;67988;60.086;30.354;2023-03-31T02:18:17;16.42;;;10.15;;
78672;SDS011;67988;60.086;30.354;2023-03-31T02:20:50;17.88;;;9.65;;
78672;SDS011;67988;60.086;30.354;2023-03-31T02:23:22;15.32;;;9.40;;
78672;SDS011;67988;60.086;30.354;2023-03-31T02:25:56;18.58;;;10.43;;
78672;SDS011;67988;60.086;30.354;2023-03-31T02:28:27;17.85;;;9.82;;
78672;SDS011;67988;60.086;30.354;2023-03-31T02:30:58;12.88;;;8.45;;
78672;SDS011;67988;60.086;30.354;2023-03-31T02:33:35;16.65;;;8.68;;
78672;SDS011;67988;60.086;30.354;2023-03-31T02:36:03;20.10;;;10.18;;
78672;SDS011;67988;60.086;30.354;2023-03-31T02:38:32;18.83;;;10.45;;
78672;SDS011;67988;60.086;30.354;2023-03-31T02:41:05;19.45;;;11.18;;
78672;SDS011;67988;60.086;30.354;2023-03-31T02:43:32;16.65;;;9.50;;
78672;SDS011;67988;60.086;30.354;2023-03-31T02:45:59;17.35;;;10.32;;
78672;SDS011;67988;60.086;30.354;2023-03-31T02:48:29;17.63;;;9.40;;
78672;SDS011;67988;60.086;30.354;2023-03-31T02:51:03;16.02;;;9.68;;
78672;SDS011;67988;60.086;30.354;2023-03-31T02:53:55;20.73;;;11.52;;
78672;SDS011;67988;60.086;30.354;2023-03-31T02:57:05;24.02;;;12.20;;
78672;SDS011;67988;60.086;30.354;2023-03-31T02:59:45;21.85;;;12.13;;
78672;SDS011;67988;60.086;30.354;2023-03-31T03:02:23;19.52;;;11.55;;
78672;SDS011;67988;60.086;30.354;2023-03-31T03:08:24;23.17;;;12.75;;
78672;SDS011;67988;60.086;30.354;2023-03-31T03:10:59;25.15;;;13.88;;
78672;SDS011;67988;60.086;30.354;2023-03-31T03:13:35;18.17;;;10.63;;
78672;SDS011;67988;60.086;30.354;2023-03-31T03:16:07;20.02;;;11.60;;
78672;SDS011;67988;60.086;30.354;2023-03-31T03:18:43;24.05;;;12.68;;
78672;SDS011;67988;60.086;30.354;2023-03-31T03:21:10;19.90;;;11.75;;
78672;SDS011;67988;60.086;30.354;2023-03-31T03:23:37;25.88;;;13.50;;
78672;SDS011;67988;60.086;30.354;2023-03-31T03:26:04;25.80;;;12.93;;
78672;SDS011;67988;60.086;30.354;2023-03-31T03:28:31;22.15;;;11.65;;
78672;SDS011;67988;60.086;30.354;2023-03-31T03:30:59;24.77;;;13.63;;
78672;SDS011;67988;60.086;30.354;2023-03-31T03:33:26;23.95;;;10.95;;
78672;SDS011;67988;60.086;30.354;2023-03-31T03:35:53;23.92;;;14.75;;
78672;SDS011;67988;60.086;30.354;2023-03-31T03:38:20;21.30;;;11.52;;
78672;SDS011;67988;60.086;30.354;2023-03-31T03:40:47;21.02;;;11.30;;
78672;SDS011;67988;60.086;30.354;2023-03-31T03:43:18;23.80;;;12.15;;
78672;SDS011;67988;60.086;30.354;2023-03-31T03:45:46;22.20;;;12.43;;
78672;SDS011;67988;60.086;30.354;2023-03-31T03:48:14;18.40;;;10.65;;
78672;SDS011;67988;60.086;30.354;2023-03-31T03:50:42;23.48;;;11.48;;
78672;SDS011;67988;60.086;30.354;2023-03-31T03:53:10;20.10;;;10.63;;
78672;SDS011;67988;60.086;30.354;2023-03-31T03:55:38;19.40;;;11.93;;
78672;SDS011;67988;60.086;30.354;2023-03-31T03:58:05;21.75;;;11.35;;
78672;SDS011;67988;60.086;30.354;2023-03-31T04:00:32;19.58;;;9.95;;
78672;SDS011;67988;60.086;30.354;2023-03-31T04:02:59;24.55;;;12.35;;
78672;SDS011;67988;60.086;30.354;2023-03-31T04:05:28;20.55;;;10.30;;
78672;SDS011;67988;60.086;30.354;2023-03-31T04:07:55;19.02;;;10.45;;
78672;SDS011;67988;60.086;30.354;2023-03-31T04:10:22;18.25;;;11.05;;
78672;SDS011;67988;60.086;30.354;2023-03-31T04:12:49;23.17;;;10.55;;
78672;SDS011;67988;60.086;30.354;2023-03-31T04:15:16;22.73;;;10.88;;
78672;SDS011;67988;60.086;30.354;2023-03-31T04:17:43;18.63;;;9.82;;
78672;SDS011;67988;60.086;30.354;2023-03-31T04:20:15;19.55;;;10.82;;
78672;SDS011;67988;60.086;30.354;2023-03-31T04:22:44;19.13;;;10.45;;
78672;SDS011;67988;60.086;30.354;2023-03-31T04:25:12;18.85;;;10.13;;
78672;SDS011;67988;60.086;30.354;2023-03-31T04:27:40;17.10;;;9.77;;
78672;SDS011;67988;60.086;30.354;2023-03-31T04:30:11;23.65;;;12.68;;
78672;SDS011;67988;60.086;30.354;2023-03-31T04:32:47;21.65;;;11.55;;
78672;SDS011;67988;60.086;30.354;2023-03-31T04:35:15;17.77;;;11.18;;
78672;SDS011;67988;60.086;30.354;2023-03-31T04:37:43;24.67;;;13.23;;
78672;SDS011;67988;60.086;30.354;2023-03-31T04:40:10;17.23;;;9.27;;
78672;SDS011;67988;60.086;30.354;2023-03-31T04:42:37;14.75;;;8.95;;
78672;SDS011;67988;60.086;30.354;2023-03-31T04:45:05;19.27;;;11.95;;
78672;SDS011;67988;60.086;30.354;2023-03-31T04:47:32;22.10;;;10.60;;
78672;SDS011;67988;60.086;30.354;2023-03-31T04:49:59;21.35;;;10.77;;
78672;SDS011;67988;60.086;30.354;2023-03-31T04:52:26;20.63;;;12.00;;
78672;SDS011;67988;60.086;30.354;2023-03-31T04:54:54;29.48;;;12.63;;
78672;SDS011;67988;60.086;30.354;2023-03-31T04:57:21;21.35;;;11.55;;
78672;SDS011;67988;60.086;30.354;2023-03-31T04:59:48;22.45;;;12.07;;
78672;SDS011;67988;60.086;30.354;2023-03-31T05:02:15;20.75;;;12.43;;
78672;SDS011;67988;60.086;30.354;2023-03-31T05:04:48;22.92;;;11.27;;
78672;SDS011;67988;60.086;30.354;2023-03-31T05:09:42;24.30;;;12.57;;
78672;SDS011;67988;60.086;30.354;2023-03-31T05:12:11;22.85;;;12.73;;
78672;SDS011;67988;60.086;30.354;2023-03-31T05:14:38;23.05;;;12.05;;
78672;SDS011;67988;60.086;30.354;2023-03-31T05:17:05;20.23;;;11.75;;
78672;SDS011;67988;60.086;30.354;2023-03-31T05:19:32;22.95;;;10.88;;
78672;SDS011;67988;60.086;30.354;2023-03-31T05:21:59;25.67;;;13.73;;
78672;SDS011;67988;60.086;30.354;2023-03-31T05:24:26;24.88;;;12.93;;
78672;SDS011;67988;60.086;30.354;2023-03-31T05:29:23;25.30;;;12.25;;
78672;SDS011;67988;60.086;30.354;2023-03-31T05:31:50;23.95;;;12.55;;
78672;SDS011;67988;60.086;30.354;2023-03-31T05:34:18;23.10;;;11.35;;
78672;SDS011;67988;60.086;30.354;2023-03-31T05:36:45;20.75;;;11.27;;
78672;SDS011;67988;60.086;30.354;2023-03-31T05:39:14;26.70;;;14.35;;
78672;SDS011;67988;60.086;30.354;2023-03-31T05:41:43;23.65;;;11.98;;
78672;SDS011;67988;60.086;30.354;2023-03-31T05:44:10;20.38;;;10.52;;
78672;SDS011;67988;60.086;30.354;2023-03-31T05:46:38;25.10;;;12.00;;
78672;SDS011;67988;60.086;30.354;2023-03-31T05:49:05;27.25;;;13.13;;
78672;SDS011;67988;60.086;30.354;2023-03-31T05:51:32;26.70;;;12.13;;
78672;SDS011;67988;60.086;30.354;2023-03-31T05:53:59;23.20;;;13.80;;
78672;SDS011;67988;60.086;30.354;2023-03-31T05:56:26;27.15;;;14.52;;
78672;SDS011;67988;60.086;30.354;2023-03-31T05:58:53;20.05;;;11.82;;
78672;SDS011;67988;60.086;30.354;2023-03-31T06:01:20;19.88;;;10.35;;
78672;SDS011;67988;60.086;30.354;2023-03-31T06:03:50;24.63;;;12.20;;
78672;SDS011;67988;60.086;30.354;2023-03-31T06:06:17;23.58;;;12.07;;
78672;SDS011;67988;60.086;30.354;2023-03-31T06:08:45;20.05;;;12.77;;
78672;SDS011;67988;60.086;30.354;2023-03-31T06:11:12;24.38;;;12.40;;
78672;SDS011;67988;60.086;30.354;2023-03-31T06:13:41;24.88;;;11.93;;
78672;SDS011;67988;60.086;30.354;2023-03-31T06:16:09;21.45;;;12.50;;
78672;SDS011;67988;60.086;30.354;2023-03-31T06:18:37;19.33;;;10.60;;
78672;SDS011;67988;60.086;30.354;2023-03-31T06:21:06;20.63;;;11.40;;
78672;SDS011;67988;60.086;30.354;2023-03-31T06:23:35;19.83;;;10.77;;
78672;SDS011;67988;60.086;30.354;2023-03-31T06:26:03;23.70;;;12.82;;
78672;SDS011;67988;60.086;30.354;2023-03-31T06:28:32;23.63;;;12.63;;
78672;SDS011;67988;60.086;30.354;2023-03-31T06:31:00;22.40;;;13.48;;
78672;SDS011;67988;60.086;30.354;2023-03-31T06:35:55;23.30;;;12.00;;
78672;SDS011;67988;60.086;30.354;2023-03-31T06:38:25;23.27;;;13.13;;
78672;SDS011;67988;60.086;30.354;2023-03-31T06:40:52;26.17;;;13.48;;
78672;SDS011;67988;60.086;30.354;2023-03-31T06:43:19;20.05;;;11.73;;
78672;SDS011;67988;60.086;30.354;2023-03-31T06:45:46;22.10;;;12.32;;
78672;SDS011;67988;60.086;30.354;2023-03-31T06:48:13;26.52;;;12.80;;
78672;SDS011;67988;60.086;30.354;2023-03-31T06:50:40;22.90;;;13.13;;
78672;SDS011;67988;60.086;30.354;2023-03-31T06:53:07;26.45;;;15.27;;
78672;SDS011;67988;60.086;30.354;2023-03-31T06:55:36;24.52;;;11.77;;
78672;SDS011;67988;60.086;30.354;2023-03-31T06:58:04;28.02;;;14.05;;
78672;SDS011;67988;60.086;30.354;2023-03-31T07:00:31;29.88;;;15.80;;
78672;SDS011;67988;60.086;30.354;2023-03-31T07:02:58;26.48;;;14.13;;
78672;SDS011;67988;60.086;30.354;2023-03-31T07:05:28;29.70;;;15.15;;
78672;SDS011;67988;60.086;30.354;2023-03-31T07:07:56;21.65;;;13.05;;
78672;SDS011;67988;60.086;30.354;2023-03-31T07:10:24;20.95;;;11.85;;
78672;SDS011;67988;60.086;30.354;2023-03-31T07:12:55;24.60;;;14.52;;
78672;SDS011;67988;60.086;30.354;2023-03-31T07:15:22;25.63;;;12.90;;
78672;SDS011;67988;60.086;30.354;2023-03-31T07:17:50;24.35;;;13.88;;
78672;SDS011;67988;60.086;30.354;2023-03-31T07:20:18;19.08;;;11.73;;
78672;SDS011;67988;60.086;30.354;2023-03-31T07:22:46;23.13;;;11.80;;
78672;SDS011;67988;60.086;30.354;2023-03-31T07:25:14;24.33;;;12.98;;
78672;SDS011;67988;60.086;30.354;2023-03-31T07:27:42;22.75;;;12.68;;
78672;SDS011;67988;60.086;30.354;2023-03-31T07:30:12;27.83;;;13.32;;
78672;SDS011;67988;60.086;30.354;2023-03-31T07:32:40;20.88;;;11.82;;
78672;SDS011;67988;60.086;30.354;2023-03-31T07:35:07;20.45;;;11.82;;
78672;SDS011;67988;60.086;30.354;2023-03-31T07:37:36;22.77;;;11.48;;
78672;SDS011;67988;60.086;30.354;2023-03-31T17:56:11;11.80;;;6.13;;
78672;SDS011;67988;60.086;30.354;2023-03-31T17:58:39;12.35;;;7.10;;
78672;SDS011;67988;60.086;30.354;2023-03-31T18:01:07;10.68;;;5.85;;
78672;SDS011;67988;60.086;30.354;2023-03-31T18:06:02;10.40;;;5.88;;
78672;SDS011;67988;60.086;30.354;2023-03-31T18:08:31;9.32;;;5.85;;
78672;SDS011;67988;60.086;30.354;2023-03-31T18:10:59;9.18;;;6.53;;
78672;SDS011;67988;60.086;30.354;2023-03-31T18:13:27;10.65;;;7.32;;
78672;SDS011;67988;60.086;30.354;2023-03-31T18:15:54;9.25;;;6.32;;
78672;SDS011;67988;60.086;30.354;2023-03-31T18:18:22;8.80;;;5.63;;
78672;SDS011;67988;60.086;30.354;2023-03-31T18:20:51;9.23;;;5.65;;
78672;SDS011;67988;60.086;30.354;2023-03-31T18:23:18;10.60;;;6.63;;
78672;SDS011;67988;60.086;30.354;2023-03-31T18:25:45;10.30;;;6.68;;
78672;SDS011;67988;60.086;30.354;2023-03-31T18:28:12;10.25;;;5.88;;
78672;SDS011;67988;60.086;30.354;2023-03-31T18:33:09;9.45;;;5.38;;
78672;SDS011;67988;60.086;30.354;2023-03-31T18:35:37;9.88;;;6.53;;
78672;SDS011;67988;60.086;30.354;2023-03-31T18:38:04;12.32;;;6.30;;
78672;SDS011;67988;60.086;30.354;2023-03-31T18:40:31;9.63;;;6.45;;
78672;SDS011;67988;60.086;30.354;2023-03-31T18:42:58;6.88;;;4.78;;
78672;SDS011;67988;60.086;30.354;2023-03-31T18:45:25;10.00;;;6.80;;
78672;SDS011;67988;60.086;30.354;2023-03-31T18:47:56;7.70;;;5.07;;
78672;SDS011;67988;60.086;30.354;2023-03-31T18:50:24;9.32;;;4.75;;
78672;SDS011;67988;60.086;30.354;2023-03-31T18:52:51;10.95;;;5.82;;
78672;SDS011;67988;60.086;30.354;2023-03-31T18:55:18;12.48;;;7.05;;
78672;SDS011;67988;60.086;30.354;2023-03-31T18:57:46;6.93;;;4.90;;
78672;SDS011;67988;60.086;30.354;2023-03-31T19:00:13;8.98;;;6.68;;
78672;SDS011;67988;60.086;30.354;2023-03-31T19:02:41;12.57;;;7.28;;
78672;SDS011;67988;60.086;30.354;2023-03-31T19:05:10;8.73;;;5.97;;
78672;SDS011;67988;60.086;30.354;2023-03-31T19:07:37;11.32;;;6.38;;
78672;SDS011;67988;60.086;30.354;2023-03-31T19:10:05;11.77;;;6.90;;
78672;SDS011;67988;60.086;30.354;2023-03-31T19:12:33;9.77;;;6.05;;
78672;SDS011;67988;60.086;30.354;2023-03-31T19:15:00;16.25;;;7.25;;
78672;SDS011;67988;60.086;30.354;2023-03-31T19:17:27;10.00;;;5.75;;
78672;SDS011;67988;60.086;30.354;2023-03-31T19:19:55;10.65;;;6.10;;
78672;SDS011;67988;60.086;30.354;2023-03-31T19:22:23;11.13;;;7.07;;
78672;SDS011;67988;60.086;30.354;2023-03-31T19:24:54;15.35;;;6.20;;
78672;SDS011;67988;60.086;30.354;2023-03-31T19:27:22;7.82;;;4.45;;
78672;SDS011;67988;60.086;30.354;2023-03-31T19:29:49;10.93;;;6.95;;
78672;SDS011;67988;60.086;30.354;2023-03-31T19:32:16;11.48;;;6.65;;
78672;SDS011;67988;60.086;30.354;2023-03-31T19:34:44;11.55;;;6.78;;
78672;SDS011;67988;60.086;30.354;2023-03-31T19:37:11;8.88;;;6.03;;
78672;SDS011;67988;60.086;30.354;2023-03-31T19:39:41;9.98;;;6.30;;
78672;SDS011;67988;60.086;30.354;2023-03-31T19:42:08;7.93;;;5.47;;
78672;SDS011;67988;60.086;30.354;2023-03-31T19:44:35;8.80;;;6.13;;
78672;SDS011;67988;60.086;30.354;2023-03-31T19:47:02;12.30;;;6.18;;
78672;SDS011;67988;60.086;30.354;2023-03-31T19:49:29;8.25;;;5.53;;
78672;SDS011;67988;60.086;30.354;2023-03-31T19:51:56;10.15;;;5.50;;
78672;SDS011;67988;60.086;30.354;2023-03-31T19:54:23;10.07;;;6.88;;
78672;SDS011;67988;60.086;30.354;2023-03-31T19:56:51;9.65;;;5.88;;
78672;SDS011;67988;60.086;30.354;2023-03-31T19:59:18;9.57;;;5.78;;
78672;SDS011;67988;60.086;30.354;2023-03-31T20:01:46;9.05;;;5.43;;
78672;SDS011;67988;60.086;30.354;2023-03-31T20:04:13;11.80;;;6.20;;
78672;SDS011;67988;60.086;30.354;2023-03-31T20:06:42;9.70;;;5.47;;
78672;SDS011;67988;60.086;30.354;2023-03-31T20:09:10;8.50;;;6.15;;
78672;SDS011;67988;60.086;30.354;2023-03-31T20:11:39;8.68;;;5.40;;
78672;SDS011;67988;60.086;30.354;2023-03-31T20:14:29;9.93;;;6.93;;
78672;SDS011;67988;60.086;30.354;2023-03-31T20:17:16;10.13;;;7.05;;
78672;SDS011;67988;60.086;30.354;2023-03-31T20:19:43;7.10;;;4.82;;
78672;SDS011;67988;60.086;30.354;2023-03-31T20:22:10;9.25;;;5.47;;
78672;SDS011;67988;60.086;30.354;2023-03-31T20:24:38;10.15;;;6.45;;
78672;SDS011;67988;60.086;30.354;2023-03-31T20:27:05;7.75;;;5.22;;
78672;SDS011;67988;60.086;30.354;2023-03-31T20:29:33;7.43;;;4.80;;
78672;SDS011;67988;60.086;30.354;2023-03-31T20:32:01;8.63;;;5.13;;
78672;SDS011;67988;60.086;30.354;2023-03-31T20:34:28;6.68;;;4.85;;
78672;SDS011;67988;60.086;30.354;2023-03-31T20:36:55;7.68;;;5.00;;
78672;SDS011;67988;60.086;30.354;2023-03-31T20:39:22;7.90;;;5.78;;
78672;SDS011;67988;60.086;30.354;2023-03-31T20:41:50;6.65;;;4.78;;
78672;SDS011;67988;60.086;30.354;2023-03-31T20:44:19;8.43;;;5.28;;
78672;SDS011;67988;60.086;30.354;2023-03-31T20:46:48;9.18;;;5.32;;
78672;SDS011;67988;60.086;30.354;2023-03-31T20:49:15;8.00;;;5.45;;
78672;SDS011;67988;60.086;30.354;2023-03-31T20:51:42;11.15;;;6.05;;
78672;SDS011;67988;60.086;30.354;2023-03-31T20:54:11;8.73;;;4.97;;
78672;SDS011;67988;60.086;30.354;2023-03-31T20:56:39;7.13;;;4.63;;
78672;SDS011;67988;60.086;30.354;2023-03-31T20:59:07;15.10;;;5.93;;
78672;SDS011;67988;60.086;30.354;2023-03-31T21:01:36;9.45;;;4.82;;
78672;SDS011;67988;60.086;30.354;2023-03-31T21:04:05;7.97;;;5.22;;
78672;SDS011;67988;60.086;30.354;2023-03-31T21:06:35;8.60;;;4.40;;
78672;SDS011;67988;60.086;30.354;2023-03-31T21:09:03;7.50;;;4.25;;
78672;SDS011;67988;60.086;30.354;2023-03-31T21:11:31;8.43;;;5.18;;
78672;SDS011;67988;60.086;30.354;2023-03-31T21:13:58;8.65;;;5.78;;
78672;SDS011;67988;60.086;30.354;2023-03-31T21:16:26;8.38;;;4.85;;
78672;SDS011;67988;60.086;30.354;2023-03-31T21:18:52;8.13;;;4.28;;
78672;SDS011;67988;60.086;30.354;2023-03-31T21:21:21;8.63;;;6.10;;
78672;SDS011;67988;60.086;30.354;2023-03-31T21:23:49;7.95;;;4.60;;
78672;SDS011;67988;60.086;30.354;2023-03-31T21:26:17;6.10;;;4.10;;
78672;SDS011;67988;60.086;30.354;2023-03-31T21:28:44;8.52;;;5.57;;
78672;SDS011;67988;60.086;30.354;2023-03-31T21:31:12;6.70;;;4.65;;
78672;SDS011;67988;60.086;30.354;2023-03-31T21:33:42;6.82;;;4.97;;
78672;SDS011;67988;60.086;30.354;2023-03-31T21:36:11;7.80;;;4.65;;
78672;SDS011;67988;60.086;30.354;2023-03-31T21:38:40;7.70;;;4.95;;
78672;SDS011;67988;60.086;30.354;2023-03-31T21:41:08;7.75;;;5.25;;
78672;SDS011;67988;60.086;30.354;2023-03-31T21:43:37;7.57;;;5.00;;
78672;SDS011;67988;60.086;30.354;2023-03-31T21:46:05;6.75;;;6.03;;
78672;SDS011;67988;60.086;30.354;2023-03-31T21:48:32;7.28;;;4.90;;
78672;SDS011;67988;60.086;30.354;2023-03-31T21:51:00;8.52;;;4.05;;
78672;SDS011;67988;60.086;30.354;2023-03-31T21:53:28;7.78;;;4.82;;
78672;SDS011;67988;60.086;30.354;2023-03-31T21:55:58;7.40;;;5.40;;
78672;SDS011;67988;60.086;30.354;2023-03-31T21:58:26;6.95;;;4.25;;
78672;SDS011;67988;60.086;30.354;2023-03-31T22:00:54;7.97;;;4.45;;
78672;SDS011;67988;60.086;30.354;2023-03-31T22:03:22;10.27;;;4.85;;
78672;SDS011;67988;60.086;30.354;2023-03-31T22:05:53;8.52;;;4.88;;
78672;SDS011;67988;60.086;30.354;2023-03-31T22:08:20;8.85;;;5.57;;
78672;SDS011;67988;60.086;30.354;2023-03-31T22:10:47;10.80;;;6.15;;
78672;SDS011;67988;60.086;30.354;2023-03-31T22:13:16;6.55;;;4.93;;
78672;SDS011;67988;60.086;30.354;2023-03-31T22:15:43;8.20;;;4.63;;
78672;SDS011;67988;60.086;30.354;2023-03-31T22:18:10;6.88;;;4.25;;
78672;SDS011;67988;60.086;30.354;2023-03-31T22:20:38;6.28;;;3.72;;
78672;SDS011;67988;60.086;30.354;2023-03-31T22:23:05;5.93;;;3.70;;
78672;SDS011;67988;60.086;30.354;2023-03-31T22:25:32;9.25;;;5.30;;
78672;SDS011;67988;60.086;30.354;2023-03-31T22:28:00;6.88;;;4.30;;
78672;SDS011;67988;60.086;30.354;2023-03-31T22:30:29;6.53;;;4.68;;
78672;SDS011;67988;60.086;30.354;2023-03-31T22:32:56;6.00;;;3.38;;
78672;SDS011;67988;60.086;30.354;2023-03-31T22:35:23;7.88;;;3.78;;
78672;SDS011;67988;60.086;30.354;2023-03-31T22:37:50;7.00;;;4.28;;
78672;SDS011;67988;60.086;30.354;2023-03-31T22:40:17;5.70;;;3.17;;
78672;SDS011;67988;60.086;30.354;2023-03-31T22:42:44;7.45;;;4.00;;
78672;SDS011;67988;60.086;30.354;2023-03-31T22:45:11;8.85;;;4.65;;
78672;SDS011;67988;60.086;30.354;2023-03-31T22:47:40;7.55;;;4.35;;
78672;SDS011;67988;60.086;30.354;2023-03-31T22:50:07;7.38;;;4.05;;
78672;SDS011;67988;60.086;30.354;2023-03-31T22:52:35;9.15;;;4.68;;
78672;SDS011;67988;60.086;30.354;2023-03-31T22:55:05;6.28;;;3.70;;
78672;SDS011;67988;60.086;30.354;2023-03-31T22:57:32;7.13;;;4.47;;
78672;SDS011;67988;60.086;30.354;2023-03-31T23:00:00;11.98;;;4.85;;
78672;SDS011;67988;60.086;30.354;2023-03-31T23:02:28;6.03;;;3.60;;
78672;SDS011;67988;60.086;30.354;2023-03-31T23:04:56;7.00;;;4.43;;
78672;SDS011;67988;60.086;30.354;2023-03-31T23:07:23;5.97;;;3.47;;
78672;SDS011;67988;60.086;30.354;2023-03-31T23:09:50;6.38;;;3.75;;
78672;SDS011;67988;60.086;30.354;2023-03-31T23:12:17;5.88;;;4.38;;
78672;SDS011;67988;60.086;30.354;2023-03-31T23:14:44;5.38;;;2.92;;
78672;SDS011;67988;60.086;30.354;2023-03-31T23:17:11;7.57;;;4.45;;
78672;SDS011;67988;60.086;30.354;2023-03-31T23:19:38;3.90;;;2.67;;
78672;SDS011;67988;60.086;30.354;2023-03-31T23:22:07;6.03;;;3.45;;
78672;SDS011;67988;60.086;30.354;2023-03-31T23:24:34;5.82;;;3.88;;
78672;SDS011;67988;60.086;30.354;2023-03-31T23:27:01;5.45;;;2.78;;
78672;SDS011;67988;60.086;30.354;2023-03-31T23:29:28;6.53;;;4.18;;
78672;SDS011;67988;60.086;30.354;2023-03-31T23:31:56;5.28;;;3.60;;
78672;SDS011;67988;60.086;30.354;2023-03-31T23:34:23;6.15;;;2.65;;
78672;SDS011;67988;60.086;30.354;2023-03-31T23:36:50;4.90;;;3.20;;
78672;SDS011;67988;60.086;30.354;2023-03-31T23:39:19;6.60;;;3.53;;
78672;SDS011;67988;60.086;30.354;2023-03-31T23:41:46;4.55;;;2.78;;
78672;SDS011;67988;60.086;30.354;2023-03-31T23:44:13;4.95;;;3.47;;
78672;SDS011;67988;60.086;30.354;2023-03-31T23:46:40;4.55;;;2.95;;
78672;SDS011;67988;60.086;30.354;2023-03-31T23:49:08;5.25;;;3.80;;
78672;SDS011;67988;60.086;30.354;2023-03-31T23:51:35;5.82;;;3.72;;
78672;SDS011;67988;60.086;30.354;2023-03-31T23:54:02;6.13;;;3.42;;
78672;SDS011;67988;60.086;30.354;2023-03-31T23:56:30;4.30;;;3.45;;
78672;SDS011;67988;60.086;30.354;2023-03-31T23:58:58;5.78;;;3.35;;
